Time;durP1;ratioP1;P1;durP2;ratioP2;P2;SDS_P1;SDS_P2;PMS_P1;PMS_P2;Temp;Humidity;BMP_temperature;BMP_pressure;BME280_temperature;BME280_humidity;BME280_pressure;Samples;Min_cycle;Max_cycle;Signal;HPM_P1;HPM_P2
2022/07/12 00:01:03;;;;;;;3.45;3.08;;;15.40;75.00;;;;;;5130573;27;20024;-76
2022/07/12 00:03:29;;;;;;;3.08;2.75;;;15.40;74.80;;;;;;5130804;27;20031;-76
2022/07/12 00:05:56;;;;;;;5.28;2.95;;;15.30;75.20;;;;;;5130817;27;20016;-76
2022/07/12 00:08:23;;;;;;;4.07;2.92;;;15.30;75.40;;;;;;5130531;27;20032;-76
2022/07/12 00:10:48;;;;;;;4.55;2.88;;;15.20;75.60;;;;;;5130209;27;20061;-77
2022/07/12 00:13:15;;;;;;;3.28;2.70;;;15.20;75.60;;;;;;5130570;27;20475;-76
2022/07/12 00:15:41;;;;;;;3.20;2.78;;;15.20;75.60;;;;;;5130540;27;20459;-76
2022/07/12 00:18:07;;;;;;;3.90;2.60;;;15.30;76.30;;;;;;5130235;27;20036;-77
2022/07/12 00:20:33;;;;;;;5.22;2.78;;;15.30;75.20;;;;;;5130084;27;20156;-76
2022/07/12 00:22:58;;;;;;;3.97;2.47;;;15.30;74.90;;;;;;5130646;27;20058;-77
2022/07/12 00:25:25;;;;;;;3.53;2.83;;;15.30;75.10;;;;;;5130493;27;20043;-76
2022/07/12 00:27:51;;;;;;;3.03;2.75;;;15.30;75.20;;;;;;5114494;28;20019;-76
2022/07/12 00:30:17;;;;;;;5.65;3.15;;;15.20;75.20;;;;;;5129800;27;20236;-77
2022/07/12 00:32:43;;;;;;;4.55;3.10;;;15.10;75.80;;;;;;5130559;27;20036;-77
2022/07/12 00:35:09;;;;;;;3.58;3.20;;;15.00;76.00;;;;;;5130442;27;20517;-76
2022/07/12 00:37:35;;;;;;;3.08;2.72;;;14.90;76.30;;;;;;5114190;28;20097;-77
2022/07/12 00:40:01;;;;;;;3.83;2.97;;;14.90;76.40;;;;;;5130065;27;20496;-77
2022/07/12 00:42:27;;;;;;;3.47;2.78;;;14.80;76.80;;;;;;5130190;27;20508;-76
2022/07/12 00:44:53;;;;;;;2.88;2.53;;;14.70;77.60;;;;;;5129763;27;20058;-76
2022/07/12 00:47:40;;;;;;;3.08;2.60;;;14.70;77.50;;;;;;5130133;27;20035;-76
2022/07/12 00:50:07;;;;;;;3.47;3.17;;;14.70;77.30;;;;;;5129975;27;20068;-77
2022/07/12 00:52:35;;;;;;;3.33;3.00;;;14.70;78.20;;;;;;5130103;27;20020;-76
2022/07/12 00:55:00;;;;;;;4.50;3.00;;;14.60;77.30;;;;;;5114174;28;20047;-76
2022/07/12 00:57:26;;;;;;;3.33;2.92;;;14.50;77.70;;;;;;5129687;27;20070;-76
2022/07/12 00:59:52;;;;;;;4.22;3.17;;;14.50;78.00;;;;;;5129445;27;20497;-76
2022/07/12 01:02:17;;;;;;;3.60;3.00;;;14.50;78.20;;;;;;5129932;27;20027;-76
2022/07/12 01:04:45;;;;;;;7.45;3.22;;;14.50;78.40;;;;;;5129742;27;20086;-78
2022/07/12 01:07:11;;;;;;;5.70;3.42;;;14.40;78.60;;;;;;5129458;27;20020;-77
2022/07/12 01:09:38;;;;;;;4.22;3.58;;;14.40;78.70;;;;;;5129680;27;20065;-76
2022/07/12 01:12:05;;;;;;;5.25;3.40;;;14.40;78.90;;;;;;5129254;27;20377;-76
2022/07/12 01:14:31;;;;;;;4.00;3.05;;;14.30;79.20;;;;;;5129461;27;20024;-77
2022/07/12 01:16:58;;;;;;;8.90;2.92;;;14.30;79.20;;;;;;5129289;27;20075;-77
2022/07/12 01:19:24;;;;;;;3.95;3.08;;;14.30;79.20;;;;;;5129609;27;20432;-77
2022/07/12 01:21:52;;;;;;;6.00;3.28;;;14.50;78.90;;;;;;5094789;28;20417;-76
2022/07/12 01:24:19;;;;;;;3.08;2.55;;;14.50;78.60;;;;;;5129155;27;20023;-77
2022/07/12 01:26:46;;;;;;;6.32;3.05;;;14.50;78.50;;;;;;5129471;27;20425;-77
2022/07/12 01:29:12;;;;;;;3.15;2.85;;;14.60;78.40;;;;;;5129248;27;20049;-77
2022/07/12 01:31:38;;;;;;;3.58;3.03;;;14.60;78.40;;;;;;5128937;27;20050;-74
2022/07/12 01:34:03;;;;;;;5.55;3.38;;;14.60;78.20;;;;;;5129164;27;20016;-74
2022/07/12 01:36:30;;;;;;;4.30;2.97;;;14.60;78.10;;;;;;5128972;27;20077;-74
2022/07/12 01:38:56;;;;;;;5.93;3.45;;;14.50;78.10;;;;;;5128665;27;20054;-74
2022/07/12 01:41:23;;;;;;;3.80;3.08;;;14.60;78.10;;;;;;5129181;27;20456;-74
2022/07/12 01:43:50;;;;;;;2.83;2.50;;;14.60;78.00;;;;;;5128959;27;20472;-74
2022/07/12 01:46:16;;;;;;;3.08;2.78;;;14.70;77.90;;;;;;5128800;27;20526;-77
2022/07/12 01:48:41;;;;;;;4.72;2.80;;;14.80;77.60;;;;;;5113016;28;20032;-73
2022/07/12 01:51:07;;;;;;;3.70;3.00;;;14.90;77.50;;;;;;5128624;27;20035;-74
2022/07/12 01:53:34;;;;;;;3.00;2.45;;;15.00;77.10;;;;;;5129144;27;20020;-74
2022/07/12 01:56:00;;;;;;;4.70;3.08;;;15.00;76.60;;;;;;5128682;28;20472;-74
2022/07/12 01:58:26;;;;;;;4.47;3.17;;;15.10;76.40;;;;;;5130630;28;20042;-75
2022/07/12 02:00:52;;;;;;;3.45;3.10;;;15.00;76.80;;;;;;5129131;28;20020;-75
2022/07/12 02:03:19;;;;;;;4.43;3.03;;;15.00;76.90;;;;;;5111578;28;20024;-75
2022/07/12 02:05:45;;;;;;;3.92;2.88;;;14.90;77.00;;;;;;5128656;28;20163;-76
2022/07/12 02:08:12;;;;;;;5.80;3.25;;;14.90;77.20;;;;;;5128692;28;20038;-77
2022/07/12 02:10:38;;;;;;;5.85;3.10;;;14.70;77.30;;;;;;5128768;28;20126;-76
2022/07/12 02:13:04;;;;;;;3.05;2.75;;;14.60;77.70;;;;;;5128678;28;20027;-76
2022/07/12 02:15:31;;;;;;;4.07;2.92;;;14.60;77.80;;;;;;5128773;28;20020;-77
2022/07/12 02:17:56;;;;;;;5.90;3.13;;;14.40;78.00;;;;;;5128758;28;20046;-76
2022/07/12 02:20:22;;;;;;;3.50;2.80;;;14.30;78.60;;;;;;5128652;28;20019;-76
2022/07/12 02:22:48;;;;;;;5.10;3.10;;;14.20;79.10;;;;;;5128452;28;20028;-77
2022/07/12 02:25:13;;;;;;;3.08;2.65;;;14.20;79.10;;;;;;5128593;28;20116;-76
2022/07/12 02:27:40;;;;;;;3.17;2.83;;;14.30;79.30;;;;;;5128759;28;20024;-77
2022/07/12 02:30:07;;;;;;;4.47;3.35;;;14.30;78.90;;;;;;5128493;28;20024;-77
2022/07/12 02:32:32;;;;;;;3.38;3.00;;;14.30;78.60;;;;;;5128779;27;20043;-76
2022/07/12 02:34:58;;;;;;;3.65;3.33;;;14.30;78.40;;;;;;5132512;27;20453;-76
2022/07/12 02:37:24;;;;;;;3.85;2.97;;;14.30;78.80;;;;;;5132140;27;20028;-76
2022/07/12 02:39:50;;;;;;;3.42;3.00;;;14.30;78.80;;;;;;5132527;27;20023;-76
2022/07/12 02:42:15;;;;;;;4.15;2.63;;;14.40;78.60;;;;;;5132437;27;20026;-74
2022/07/12 02:44:41;;;;;;;3.20;2.90;;;14.40;78.30;;;;;;5132361;27;20496;-76
2022/07/12 02:47:07;;;;;;;4.57;2.88;;;14.50;78.00;;;;;;5116446;28;20024;-76
2022/07/12 02:49:32;;;;;;;4.85;2.80;;;14.50;77.80;;;;;;5132571;27;20023;-76
2022/07/12 02:51:58;;;;;;;4.28;2.70;;;14.60;77.50;;;;;;5132134;27;20388;-74
2022/07/12 02:54:23;;;;;;;3.17;2.70;;;14.60;77.10;;;;;;5132167;27;20097;-74
2022/07/12 02:56:49;;;;;;;4.53;2.78;;;14.60;77.00;;;;;;5132160;27;20023;-74
2022/07/12 02:59:15;;;;;;;3.50;2.38;;;14.60;76.70;;;;;;5132230;27;20032;-74
2022/07/12 03:01:40;;;;;;;3.33;2.47;;;14.60;76.50;;;;;;5131985;27;20107;-74
2022/07/12 03:04:06;;;;;;;4.15;2.85;;;14.70;76.40;;;;;;5131509;27;20102;-74
2022/07/12 03:06:31;;;;;;;3.10;2.80;;;14.60;76.20;;;;;;5131780;27;20460;-74
2022/07/12 03:08:57;;;;;;;3.35;2.95;;;14.50;76.50;;;;;;5131732;27;20472;-74
2022/07/12 03:11:23;;;;;;;4.53;3.17;;;14.60;76.30;;;;;;5131985;27;20031;-74
2022/07/12 03:13:48;;;;;;;6.25;3.20;;;14.50;76.20;;;;;;5114707;28;20392;-74
2022/07/12 03:16:14;;;;;;;7.40;3.20;;;14.50;76.20;;;;;;5131603;27;20035;-74
2022/07/12 03:18:40;;;;;;;4.35;3.20;;;14.40;76.30;;;;;;5131495;27;20119;-74
2022/07/12 03:21:06;;;;;;;4.40;3.30;;;14.40;77.60;;;;;;5131653;27;20054;-74
2022/07/12 03:23:32;;;;;;;2.97;2.70;;;14.30;77.10;;;;;;5131907;27;20028;-74
2022/07/12 03:25:57;;;;;;;4.28;3.10;;;14.30;77.20;;;;;;5131880;27;20028;-74
2022/07/12 03:28:23;;;;;;;3.85;2.97;;;14.30;77.10;;;;;;5131474;27;20089;-75
2022/07/12 03:30:48;;;;;;;3.33;2.90;;;14.30;77.10;;;;;;5131439;27;20086;-75
2022/07/12 03:33:14;;;;;;;5.05;3.33;;;14.30;77.50;;;;;;5131541;27;20131;-75
2022/07/12 03:35:40;;;;;;;3.67;3.00;;;14.30;77.40;;;;;;5131083;27;20019;-75
2022/07/12 03:38:05;;;;;;;4.55;3.38;;;14.30;77.40;;;;;;5131414;27;20064;-75
2022/07/12 03:40:34;;;;;;;5.72;3.10;;;14.20;77.50;;;;;;5131486;27;20499;-75
2022/07/12 03:43:00;;;;;;;3.47;2.92;;;14.20;77.70;;;;;;5131360;27;20118;-75
2022/07/12 03:45:25;;;;;;;4.35;3.28;;;14.20;77.50;;;;;;5130138;27;20500;-75
2022/07/12 03:47:51;;;;;;;5.28;3.53;;;14.20;77.30;;;;;;5131073;27;20413;-75
2022/07/12 03:50:16;;;;;;;3.28;2.65;;;14.20;77.50;;;;;;5130849;27;20020;-75
2022/07/12 03:52:43;;;;;;;3.63;3.08;;;14.20;77.50;;;;;;5130976;27;20479;-75
2022/07/12 03:55:10;;;;;;;4.13;3.67;;;14.20;77.70;;;;;;5130688;27;20027;-75
2022/07/12 03:57:36;;;;;;;4.72;3.78;;;14.10;77.70;;;;;;5130774;27;20058;-75
2022/07/12 04:00:04;;;;;;;3.58;3.28;;;14.20;77.80;;;;;;5130803;27;20468;-75
2022/07/12 04:02:29;;;;;;;4.00;3.40;;;14.10;77.80;;;;;;5130288;27;20027;-75
2022/07/12 04:04:55;;;;;;;4.43;3.33;;;14.10;78.10;;;;;;5129904;27;20037;-75
2022/07/12 04:07:21;;;;;;;5.97;3.50;;;14.10;78.50;;;;;;5129452;27;20463;-75
2022/07/12 04:09:47;;;;;;;3.60;3.30;;;14.10;78.40;;;;;;5130304;27;20016;-75
2022/07/12 04:12:12;;;;;;;6.97;3.30;;;14.10;78.40;;;;;;5130546;27;20046;-75
2022/07/12 04:14:38;;;;;;;6.03;3.13;;;14.10;78.30;;;;;;5130614;27;20042;-75
2022/07/12 04:17:05;;;;;;;3.95;2.70;;;14.10;78.10;;;;;;5130142;27;20085;-75
2022/07/12 04:19:31;;;;;;;3.92;3.17;;;14.20;77.80;;;;;;5130329;27;20027;-74
2022/07/12 04:21:57;;;;;;;6.45;3.03;;;14.30;77.60;;;;;;5130287;27;20027;-75
2022/07/12 04:24:23;;;;;;;4.28;3.33;;;14.40;77.30;;;;;;5130470;27;20115;-75
2022/07/12 04:26:49;;;;;;;5.60;3.80;;;14.40;77.20;;;;;;5130263;27;20482;-74
2022/07/12 04:29:17;;;;;;;7.15;3.90;;;14.40;77.30;;;;;;5130121;27;20077;-75
2022/07/12 04:31:43;;;;;;;4.53;3.45;;;14.40;77.20;;;;;;5129938;27;20043;-75
2022/07/12 04:34:08;;;;;;;5.28;3.40;;;14.40;77.30;;;;;;5130253;27;20384;-75
2022/07/12 04:36:34;;;;;;;4.85;3.10;;;14.30;77.70;;;;;;5130090;27;20068;-75
2022/07/12 04:38:59;;;;;;;4.57;3.63;;;14.30;77.80;;;;;;5130146;27;20084;-75
2022/07/12 04:41:25;;;;;;;5.63;3.97;;;14.20;78.00;;;;;;5129824;27;20019;-75
2022/07/12 04:43:51;;;;;;;5.47;3.35;;;14.30;77.90;;;;;;5130156;27;20036;-75
2022/07/12 04:46:16;;;;;;;8.30;3.85;;;14.40;77.80;;;;;;5129759;27;20023;-75
2022/07/12 04:48:42;;;;;;;4.10;3.53;;;14.30;78.00;;;;;;5129497;27;20023;-75
2022/07/12 04:51:07;;;;;;;3.90;2.97;;;14.30;78.10;;;;;;5130500;27;20028;-75
2022/07/12 04:53:33;;;;;;;4.50;3.45;;;14.40;77.80;;;;;;5129892;27;20031;-75
2022/07/12 04:55:59;;;;;;;4.22;3.50;;;14.40;77.80;;;;;;5129719;27;20039;-75
2022/07/12 04:58:24;;;;;;;4.82;3.42;;;14.50;77.60;;;;;;5129688;27;20085;-75
2022/07/12 05:00:50;;;;;;;5.10;3.90;;;14.60;77.20;;;;;;5129716;27;20020;-75
2022/07/12 05:03:17;;;;;;;6.47;4.30;;;14.70;77.20;;;;;;5129617;27;20467;-75
2022/07/12 05:05:43;;;;;;;6.35;3.90;;;14.70;77.10;;;;;;5129723;27;20546;-75
2022/07/12 05:08:09;;;;;;;8.13;3.70;;;14.90;76.90;;;;;;5129417;27;20063;-75
2022/07/12 05:10:34;;;;;;;4.75;3.53;;;15.00;76.40;;;;;;5129532;27;20031;-75
2022/07/12 05:13:00;;;;;;;8.10;4.60;;;15.10;75.70;;;;;;5129398;27;20024;-75
2022/07/12 05:15:25;;;;;;;5.30;4.15;;;15.20;74.80;;;;;;5112537;28;20020;-74
2022/07/12 05:17:51;;;;;;;4.47;3.33;;;15.10;75.20;;;;;;5129292;27;20550;-75
2022/07/12 05:20:19;;;;;;;4.85;3.90;;;15.10;75.60;;;;;;5129360;27;20353;-77
2022/07/12 05:22:45;;;;;;;5.07;4.07;;;15.10;76.00;;;;;;5128979;27;20426;-75
2022/07/12 05:25:11;;;;;;;4.20;3.35;;;15.10;76.10;;;;;;5129227;27;20028;-74
2022/07/12 05:27:36;;;;;;;7.60;4.00;;;15.10;76.20;;;;;;5128556;27;20023;-75
2022/07/12 05:30:07;;;;;;;6.68;4.05;;;15.30;75.60;;;;;;5128870;27;20115;-75
2022/07/12 05:32:33;;;;;;;7.25;4.10;;;15.40;74.80;;;;;;5128601;27;20115;-75
2022/07/12 05:34:58;;;;;;;5.85;3.90;;;15.50;74.60;;;;;;5130592;27;20031;-76
2022/07/12 05:37:25;;;;;;;8.35;3.95;;;15.60;74.30;;;;;;5134187;27;20525;-75
2022/07/12 05:39:53;;;;;;;5.07;4.15;;;15.70;74.20;;;;;;5113459;28;20028;-75
2022/07/12 05:42:19;;;;;;;5.68;4.20;;;15.90;73.90;;;;;;5131626;27;20031;-75
2022/07/12 05:44:45;;;;;;;8.02;4.53;;;15.90;73.60;;;;;;5130889;27;20031;-75
2022/07/12 05:47:11;;;;;;;5.15;4.13;;;16.10;73.40;;;;;;5130780;27;20032;-76
2022/07/12 05:49:37;;;;;;;5.65;3.72;;;16.10;73.40;;;;;;5114956;28;20024;-76
2022/07/12 05:54:47;;;;;;;4.57;3.75;;;16.50;72.80;;;;;;5114259;28;20392;-76
2022/07/12 05:57:15;;;;;;;6.22;3.50;;;16.70;72.30;;;;;;5129528;27;20024;-76
2022/07/12 05:59:40;;;;;;;4.88;3.63;;;16.80;71.70;;;;;;5129466;28;20038;-76
2022/07/12 06:02:06;;;;;;;3.30;3.00;;;16.90;71.60;;;;;;5129455;28;20011;-77
2022/07/12 06:04:31;;;;;;;4.97;3.55;;;17.00;71.30;;;;;;5130747;28;20164;-75
2022/07/12 06:06:57;;;;;;;6.72;3.75;;;17.20;70.90;;;;;;5130423;27;20464;-76
2022/07/12 06:09:23;;;;;;;5.63;3.50;;;17.30;70.40;;;;;;5117422;28;20019;-75
2022/07/12 06:11:53;;;;;;;6.32;3.50;;;17.30;70.20;;;;;;5118758;28;20085;-75
2022/07/12 06:14:20;;;;;;;8.50;3.67;;;17.40;70.00;;;;;;5134884;27;20039;-76
2022/07/12 06:16:45;;;;;;;4.57;3.55;;;17.60;69.80;;;;;;5117372;28;20035;-76
2022/07/12 06:19:11;;;;;;;12.95;4.10;;;17.60;69.50;;;;;;5133636;27;20028;-82
2022/07/12 06:21:42;;;;;;;41.85;6.28;;;17.70;69.20;;;;;;5133306;27;20023;-80
2022/07/12 06:24:09;;;;;;;8.73;4.03;;;18.00;69.70;;;;;;5134748;27;20530;-80
2022/07/12 06:26:39;;;;;;;5.93;3.70;;;18.30;67.80;;;;;;5117930;28;20047;-81
2022/07/12 06:29:06;;;;;;;8.35;3.53;;;18.60;66.60;;;;;;5117059;28;20062;-79
2022/07/12 06:31:32;;;;;;;5.47;3.30;;;18.80;65.70;;;;;;5099228;28;20155;-81
2022/07/12 06:33:59;;;;;;;6.15;3.25;;;19.10;64.70;;;;;;5116277;27;20028;-79
2022/07/12 06:36:31;;;;;;;6.47;3.20;;;19.40;63.80;;;;;;5115877;28;20053;-81
2022/07/12 06:38:58;;;;;;;6.38;2.70;;;19.60;62.90;;;;;;5129672;27;20036;-81
2022/07/12 06:41:47;;;;;;;4.97;3.05;;;19.80;62.10;;;;;;5116901;28;20039;-81
2022/07/12 06:44:14;;;;;;;3.55;2.65;;;19.90;61.70;;;;;;5116073;28;20028;-80
2022/07/12 06:46:46;;;;;;;2.55;2.20;;;20.10;61.40;;;;;;5117720;28;20062;-83
2022/07/12 06:49:18;;;;;;;3.83;3.20;;;20.20;61.40;;;;;;5132820;27;20027;-82
2022/07/12 06:51:45;;;;;;;6.15;3.25;;;20.30;61.00;;;;;;5114844;28;20114;-81
2022/07/12 06:54:13;;;;;;;3.67;3.03;;;20.20;60.30;;;;;;5115043;28;20039;-81
2022/07/12 06:56:39;;;;;;;3.30;3.00;;;19.80;61.30;;;;;;5098808;28;20026;-81
2022/07/12 06:59:04;;;;;;;6.97;3.38;;;19.80;61.90;;;;;;5097898;28;20027;-81
2022/07/12 07:01:34;;;;;;;4.50;3.42;;;19.90;62.30;;;;;;5115154;28;20043;-81
2022/07/12 07:04:02;;;;;;;4.47;2.65;;;20.00;60.90;;;;;;5131950;27;20024;-81
2022/07/12 07:06:28;;;;;;;6.35;3.80;;;20.20;60.70;;;;;;5114887;28;20031;-81
2022/07/12 07:08:58;;;;;;;3.97;3.20;;;19.90;61.80;;;;;;5116564;28;20028;-81
2022/07/12 07:11:31;;;;;;;4.68;3.33;;;19.90;62.20;;;;;;5114672;28;20031;-81
2022/07/12 07:14:00;;;;;;;4.07;3.03;;;19.90;61.90;;;;;;5116606;28;20032;-80
2022/07/12 07:16:27;;;;;;;3.55;3.05;;;20.00;61.60;;;;;;5115542;28;20510;-81
2022/07/12 07:18:53;;;;;;;3.28;2.97;;;20.10;62.80;;;;;;5080373;28;20082;-81
2022/07/12 07:21:25;;;;;;;5.75;2.83;;;20.00;61.90;;;;;;5097933;28;20059;-81
2022/07/12 07:24:12;;;;;;;4.53;3.75;;;20.10;61.50;;;;;;5114313;28;20097;-81
2022/07/12 07:26:39;;;;;;;4.15;2.67;;;20.20;61.40;;;;;;5115271;28;20055;-81
2022/07/12 07:31:52;;;;;;;3.78;3.38;;;20.20;61.20;;;;;;5116974;28;20059;-81
2022/07/12 07:34:20;;;;;;;3.40;3.10;;;20.30;61.20;;;;;;5115400;28;20027;-80
2022/07/12 07:36:53;;;;;;;7.00;3.38;;;20.40;60.50;;;;;;5115443;28;20039;-80
2022/07/12 07:39:18;;;;;;;5.18;3.22;;;20.40;60.90;;;;;;5132758;27;20428;-81
2022/07/12 07:41:44;;;;;;;4.80;3.30;;;20.30;61.40;;;;;;5153614;27;20012;-81
2022/07/12 07:44:12;;;;;;;4.03;3.38;;;20.40;61.30;;;;;;5139969;28;20038;-81
2022/07/12 07:46:41;;;;;;;4.35;2.88;;;20.20;62.10;;;;;;5105603;28;20024;-81
2022/07/12 07:49:09;;;;;;;4.25;2.88;;;20.40;61.20;;;;;;5122488;28;20039;-80
2022/07/12 07:51:34;;;;;;;3.88;3.10;;;20.70;60.80;;;;;;5156617;27;20023;-80
2022/07/12 07:54:00;;;;;;;8.98;3.45;;;20.80;60.60;;;;;;5138902;27;20032;-80
2022/07/12 07:56:30;;;;;;;3.13;2.83;;;20.70;59.10;;;;;;5139221;28;20024;-79
2022/07/12 07:58:57;;;;;;;6.10;3.33;;;20.70;59.70;;;;;;5101227;28;20028;-80
2022/07/12 08:01:42;;;;;;;4.45;3.13;;;20.80;60.40;;;;;;5117698;28;20024;-79
2022/07/12 08:04:13;;;;;;;5.53;2.83;;;20.90;59.80;;;;;;5118007;28;20036;-79
2022/07/12 08:06:39;;;;;;;5.13;3.22;;;20.90;59.80;;;;;;5134104;27;20088;-80
2022/07/12 08:09:06;;;;;;;7.60;3.47;;;21.00;60.20;;;;;;5134437;27;20122;-80
2022/07/12 08:11:32;;;;;;;4.32;3.50;;;21.20;59.40;;;;;;5133969;27;20504;-80
2022/07/12 08:13:59;;;;;;;7.20;3.80;;;21.10;59.50;;;;;;5115418;28;20340;-80
2022/07/12 08:16:25;;;;;;;5.03;3.10;;;21.20;59.20;;;;;;5131901;27;20026;-79
2022/07/12 08:18:54;;;;;;;7.65;3.53;;;21.40;58.80;;;;;;5131016;27;20126;-79
2022/07/12 08:21:20;;;;;;;5.05;3.17;;;21.60;57.70;;;;;;5131096;27;20082;-79
2022/07/12 08:23:48;;;;;;;7.75;2.85;;;21.60;58.30;;;;;;5112705;28;20020;-79
2022/07/12 08:26:16;;;;;;;5.00;3.60;;;21.60;57.20;;;;;;5080099;28;20031;-79
2022/07/12 08:28:43;;;;;;;4.35;2.97;;;21.60;56.50;;;;;;5113422;28;20062;-80
2022/07/12 08:31:31;;;;;;;3.65;3.00;;;21.70;56.80;;;;;;5112463;28;20046;-79
2022/07/12 08:33:59;;;;;;;9.85;3.33;;;21.90;56.80;;;;;;5112805;28;20036;-79
2022/07/12 08:36:25;;;;;;;6.03;3.03;;;22.00;56.40;;;;;;5130514;27;20019;-79
2022/07/12 08:38:52;;;;;;;6.38;2.83;;;22.00;54.50;;;;;;5113093;28;20036;-79
2022/07/12 08:41:18;;;;;;;6.47;2.92;;;22.10;54.50;;;;;;5129900;27;20031;-81
2022/07/12 08:43:44;;;;;;;3.95;3.47;;;22.10;55.80;;;;;;5129648;27;20024;-80
2022/07/12 08:46:12;;;;;;;4.78;2.83;;;22.10;55.00;;;;;;5079122;28;20046;-79
2022/07/12 08:48:39;;;;;;;3.42;2.95;;;22.10;55.80;;;;;;5095976;28;20036;-79
2022/07/12 08:51:17;;;;;;;5.53;2.67;;;22.30;54.30;;;;;;5129489;27;20110;-80
2022/07/12 08:53:44;;;;;;;2.55;2.30;;;22.40;52.30;;;;;;5112940;28;20027;-78
2022/07/12 08:56:32;;;;;;;4.03;2.53;;;22.50;52.30;;;;;;5129603;27;20043;-79
2022/07/12 08:59:16;;;;;;;4.03;2.80;;;22.60;51.20;;;;;;5113950;28;20047;-79
2022/07/12 09:01:53;;;;;;;6.30;3.00;;;22.80;51.80;;;;;;5129663;27;20493;-78
2022/07/12 09:04:27;;;;;;;3.08;2.67;;;22.50;51.60;;;;;;5130095;27;20144;-79
2022/07/12 09:06:53;;;;;;;2.70;2.38;;;22.50;52.00;;;;;;5112660;28;20024;-80
2022/07/12 09:09:37;;;;;;;2.55;2.25;;;22.50;51.70;;;;;;5129936;27;20467;-79
2022/07/12 09:12:03;;;;;;;2.45;2.25;;;22.40;51.70;;;;;;5129899;27;20077;-79
2022/07/12 09:14:28;;;;;;;3.10;2.67;;;22.30;51.80;;;;;;5129496;27;20032;-79
2022/07/12 09:17:09;;;;;;;4.40;2.58;;;22.20;51.10;;;;;;5129719;27;20020;-82
2022/07/12 09:19:35;;;;;;;2.65;2.30;;;22.20;51.30;;;;;;5129532;27;20402;-80
2022/07/12 09:22:01;;;;;;;2.63;2.35;;;22.30;50.90;;;;;;5128969;27;20106;-80
2022/07/12 09:24:28;;;;;;;3.35;2.83;;;22.40;50.10;;;;;;5129336;27;20062;-80
2022/07/12 09:27:07;;;;;;;3.20;2.38;;;22.40;49.80;;;;;;5112279;28;20028;-80
2022/07/12 09:29:45;;;;;;;2.10;1.90;;;22.60;49.10;;;;;;5077818;28;20060;-79
2022/07/12 09:37:41;;;;;;;3.85;2.10;;;22.80;46.20;;;;;;5113601;28;20078;-80
2022/07/12 09:40:08;;;;;;;4.30;2.40;;;22.70;47.50;;;;;;5111765;28;20044;-79
2022/07/12 09:42:35;;;;;;;3.75;2.15;;;22.80;46.70;;;;;;5107503;28;20198;-79
2022/07/12 09:45:02;;;;;;;3.90;2.40;;;22.90;46.70;;;;;;5111642;28;20112;-79
2022/07/12 09:47:29;;;;;;;4.57;1.95;;;22.70;47.10;;;;;;5112794;28;20042;-79
2022/07/12 09:49:58;;;;;;;4.25;2.22;;;22.70;46.50;;;;;;5095337;28;20029;-79
2022/07/12 09:52:28;;;;;;;4.97;2.17;;;22.60;47.30;;;;;;5111176;28;20089;-76
2022/07/12 09:54:55;;;;;;;4.82;1.80;;;22.80;48.10;;;;;;5128203;27;20027;-80
2022/07/12 09:57:33;;;;;;;2.38;2.08;;;23.10;47.30;;;;;;5093324;28;20075;-81
2022/07/12 10:00:11;;;;;;;5.30;2.30;;;23.40;45.70;;;;;;5094753;28;20054;-83
2022/07/12 10:02:37;;;;;;;3.17;2.00;;;23.50;45.10;;;;;;5111743;28;20030;-80
2022/07/12 10:05:07;;;;;;;3.38;1.77;;;23.40;43.40;;;;;;5111469;28;20072;-80
2022/07/12 10:07:33;;;;;;;4.47;1.77;;;23.30;44.00;;;;;;5094986;28;20063;-79
2022/07/12 10:10:04;;;;;;;2.55;1.58;;;23.40;44.60;;;;;;5111066;28;20066;-81
2022/07/12 10:12:31;;;;;;;2.80;2.05;;;23.60;43.80;;;;;;5128096;28;20032;-82
2022/07/12 10:15:03;;;;;;;3.45;1.75;;;23.60;42.10;;;;;;5092121;28;20065;-81
2022/07/12 10:17:33;;;;;;;3.13;1.88;;;23.70;42.50;;;;;;5134416;28;20031;-83
2022/07/12 10:20:23;;;;;;;4.63;2.58;;;24.00;42.70;;;;;;5132995;28;20024;-83
2022/07/12 10:22:54;;;;;;;3.47;2.08;;;24.20;41.70;;;;;;5113437;28;20051;-76
2022/07/12 10:25:34;;;;;;;5.78;2.25;;;24.30;41.20;;;;;;5128716;28;20088;-77
2022/07/12 10:28:01;;;;;;;4.05;1.90;;;24.50;40.70;;;;;;5128323;28;20043;-77
2022/07/12 10:30:27;;;;;;;2.80;2.45;;;24.50;41.80;;;;;;5128825;28;20027;-77
2022/07/12 10:32:57;;;;;;;4.15;1.85;;;24.40;41.80;;;;;;5128823;28;20449;-76
2022/07/12 10:35:25;;;;;;;2.40;2.20;;;24.50;42.50;;;;;;5128806;28;20031;-77
2022/07/12 10:38:12;;;;;;;2.42;1.98;;;24.50;41.80;;;;;;5128515;28;20103;-77
2022/07/12 10:40:39;;;;;;;4.07;2.10;;;24.90;40.80;;;;;;5128523;28;20157;-76
2022/07/12 10:43:05;;;;;;;2.78;1.80;;;25.10;41.20;;;;;;5128304;28;20027;-77
2022/07/12 10:45:40;;;;;;;3.92;2.15;;;25.20;40.10;;;;;;5128455;28;20023;-77
2022/07/12 10:48:06;;;;;;;5.28;2.08;;;25.40;39.80;;;;;;5128266;28;20031;-74
2022/07/12 10:51:00;;;;;;;2.70;1.80;;;25.10;41.10;;;;;;5128144;28;20115;-74
2022/07/12 10:53:40;;;;;;;2.35;1.73;;;25.00;40.80;;;;;;5129380;27;20388;-78
2022/07/12 10:56:14;;;;;;;8.05;2.60;;;24.90;40.60;;;;;;5116363;28;20110;-75
2022/07/12 10:58:53;;;;;;;5.22;4.03;;;25.10;40.40;;;;;;5131779;27;20088;-76
2022/07/12 11:01:29;;;;;;;2.25;2.03;;;25.30;41.20;;;;;;5131861;27;20114;-77
2022/07/12 11:04:06;;;;;;;3.40;1.90;;;25.50;39.90;;;;;;5132057;27;20019;-77
2022/07/12 11:06:36;;;;;;;1.75;1.65;;;25.70;38.40;;;;;;5114660;28;20503;-77
2022/07/12 11:09:15;;;;;;;3.83;1.90;;;25.70;38.80;;;;;;5132222;27;20074;-77
2022/07/12 11:11:49;;;;;;;3.58;1.60;;;26.00;38.90;;;;;;5131889;27;20184;-79
2022/07/12 11:14:24;;;;;;;1.73;1.55;;;26.20;38.50;;;;;;5131453;27;20023;-79
2022/07/12 11:16:52;;;;;;;2.70;1.58;;;26.40;37.90;;;;;;5131840;27;20027;-79
2022/07/12 11:19:23;;;;;;;3.88;1.85;;;26.70;37.50;;;;;;5132041;27;20172;-79
2022/07/12 11:21:57;;;;;;;2.45;1.80;;;26.90;36.40;;;;;;5131479;27;20472;-77
2022/07/12 11:24:27;;;;;;;4.35;1.63;;;27.00;35.90;;;;;;5131700;27;20058;-79
2022/07/12 11:26:54;;;;;;;3.40;1.73;;;27.00;35.40;;;;;;5131615;27;20044;-78
2022/07/12 11:29:19;;;;;;;3.42;1.85;;;26.80;35.50;;;;;;5131595;27;20027;-80
2022/07/12 11:31:46;;;;;;;2.55;1.63;;;26.70;36.10;;;;;;5131084;27;20396;-79
2022/07/12 11:34:22;;;;;;;1.95;1.40;;;26.70;36.40;;;;;;5131521;27;20020;-79
2022/07/12 11:36:54;;;;;;;3.10;1.88;;;26.40;36.60;;;;;;5115602;28;20027;-79
2022/07/12 11:39:34;;;;;;;2.40;1.65;;;26.40;36.70;;;;;;5131514;27;20118;-79
2022/07/12 11:42:00;;;;;;;2.10;1.90;;;26.10;37.30;;;;;;5131366;27;20028;-77
2022/07/12 11:44:51;;;;;;;3.00;1.80;;;26.20;37.10;;;;;;5097100;28;20103;-77
2022/07/12 11:47:19;;;;;;;3.70;1.38;;;25.90;37.00;;;;;;5131256;27;20045;-77
2022/07/12 11:49:46;;;;;;;3.30;1.85;;;25.80;36.50;;;;;;5131423;27;20120;-79
2022/07/12 11:52:13;;;;;;;2.78;1.45;;;25.90;37.60;;;;;;5131089;27;20037;-78
2022/07/12 11:54:39;;;;;;;1.90;1.70;;;26.20;38.50;;;;;;5130966;27;20448;-78
2022/07/12 11:57:09;;;;;;;2.33;1.40;;;26.70;36.80;;;;;;5131099;27;20028;-79
2022/07/12 11:59:35;;;;;;;1.63;1.50;;;27.20;36.00;;;;;;5131110;27;20031;-79
2022/07/12 12:02:12;;;;;;;4.53;1.65;;;27.20;34.30;;;;;;5131031;27;20467;-79
2022/07/12 12:04:49;;;;;;;1.75;1.25;;;27.30;33.60;;;;;;5130761;27;20122;-78
2022/07/12 12:07:16;;;;;;;6.18;1.38;;;27.30;33.60;;;;;;5130855;27;20028;-78
2022/07/12 12:10:14;;;;;;;1.35;1.13;;;27.30;33.30;;;;;;5130880;27;20051;-79
2022/07/12 12:12:53;;;;;;;2.58;1.42;;;27.30;32.70;;;;;;5130866;27;20031;-79
2022/07/12 12:15:22;;;;;;;2.08;1.10;;;27.20;33.40;;;;;;5130553;27;20051;-79
2022/07/12 12:18:05;;;;;;;3.67;1.20;;;27.00;32.90;;;;;;5130611;27;20118;-77
2022/07/12 12:20:39;;;;;;;1.70;1.02;;;27.10;32.40;;;;;;5130560;27;20032;-79
2022/07/12 12:23:07;;;;;;;1.50;1.20;;;27.30;32.40;;;;;;5130805;27;20020;-77
2022/07/12 12:25:33;;;;;;;1.60;1.30;;;27.40;32.30;;;;;;5096994;28;20034;-78
2022/07/12 12:28:03;;;;;;;1.75;1.33;;;27.60;31.60;;;;;;5130533;27;20114;-76
2022/07/12 12:30:34;;;;;;;1.05;1.00;;;27.50;32.10;;;;;;5130463;27;20027;-76
2022/07/12 12:33:02;;;;;;;1.25;1.15;;;27.30;32.80;;;;;;5130418;27;20123;-78
2022/07/12 12:35:36;;;;;;;2.20;1.45;;;27.10;32.50;;;;;;5130770;27;20027;-78
2022/07/12 12:38:11;;;;;;;1.60;1.13;;;26.80;32.70;;;;;;5114440;28;20081;-76
2022/07/12 12:40:37;;;;;;;1.80;1.10;;;27.00;34.00;;;;;;5130811;27;20024;-79
2022/07/12 12:43:17;;;;;;;1.73;0.98;;;27.30;32.50;;;;;;5130060;27;20031;-78
2022/07/12 12:45:49;;;;;;;1.10;1.00;;;27.40;31.20;;;;;;5130068;27;20073;-75
2022/07/12 12:48:22;;;;;;;1.38;1.02;;;27.40;30.50;;;;;;5130138;27;20031;-76
2022/07/12 12:50:50;;;;;;;2.50;0.95;;;27.40;30.70;;;;;;5130518;27;20073;-77
2022/07/12 12:53:23;;;;;;;1.10;1.00;;;27.50;30.90;;;;;;5129913;27;20118;-78
2022/07/12 12:55:51;;;;;;;1.85;0.80;;;27.80;31.50;;;;;;5130065;27;20024;-79
2022/07/12 12:58:18;;;;;;;3.53;0.75;;;28.10;30.50;;;;;;5129926;27;20074;-76
2022/07/12 13:00:47;;;;;;;0.70;0.60;;;28.00;30.70;;;;;;5129646;27;20019;-77
2022/07/12 13:03:17;;;;;;;0.90;0.90;;;28.10;30.90;;;;;;5129908;27;20023;-76
2022/07/12 13:05:43;;;;;;;1.83;0.93;;;28.40;30.80;;;;;;5129742;27;20523;-79